地図

経路データ

SID SEASON NUMBER BASIN SUBBASIN NAME ISO_TIME NATURE LAT LON WMO_WIND WMO_PRES WMO_AGENCY TRACK_TYPE DIST2LAND LANDFALL IFLAG USA_AGENCY USA_ATCF_ID USA_LAT USA_LON USA_RECORD USA_STATUS USA_WIND USA_PRES USA_SSHS USA_R34_NE USA_R34_SE USA_R34_SW USA_R34_NW USA_R50_NE USA_R50_SE USA_R50_SW USA_R50_NW USA_R64_NE USA_R64_SE USA_R64_SW USA_R64_NW USA_POCI USA_ROCI USA_RMW USA_EYE TOKYO_LAT TOKYO_LON TOKYO_GRADE TOKYO_WIND TOKYO_PRES TOKYO_R50_DIR TOKYO_R50_LONG TOKYO_R50_SHORT TOKYO_R30_DIR TOKYO_R30_LONG TOKYO_R30_SHORT TOKYO_LAND CMA_LAT CMA_LON CMA_CAT CMA_WIND CMA_PRES HKO_LAT HKO_LON HKO_CAT HKO_WIND HKO_PRES NEWDELHI_LAT NEWDELHI_LON NEWDELHI_GRADE NEWDELHI_WIND NEWDELHI_PRES NEWDELHI_CI NEWDELHI_DP NEWDELHI_POCI REUNION_LAT REUNION_LON REUNION_TYPE REUNION_WIND REUNION_PRES REUNION_TNUM REUNION_CI REUNION_RMW REUNION_R34_NE REUNION_R34_SE REUNION_R34_SW REUNION_R34_NW REUNION_R50_NE REUNION_R50_SE REUNION_R50_SW REUNION_R50_NW REUNION_R64_NE REUNION_R64_SE REUNION_R64_SW REUNION_R64_NW BOM_LAT BOM_LON BOM_TYPE BOM_WIND BOM_PRES BOM_TNUM BOM_CI BOM_RMW BOM_R34_NE BOM_R34_SE BOM_R34_SW BOM_R34_NW BOM_R50_NE BOM_R50_SE BOM_R50_SW BOM_R50_NW BOM_R64_NE BOM_R64_SE BOM_R64_SW BOM_R64_NW BOM_ROCI BOM_POCI BOM_EYE BOM_POS_METHOD BOM_PRES_METHOD NADI_LAT NADI_LON NADI_CAT NADI_WIND NADI_PRES WELLINGTON_LAT WELLINGTON_LON WELLINGTON_WIND WELLINGTON_PRES DS824_LAT DS824_LON DS824_STAGE DS824_WIND DS824_PRES TD9636_LAT TD9636_LON TD9636_STAGE TD9636_WIND TD9636_PRES TD9635_LAT TD9635_LON TD9635_WIND TD9635_PRES TD9635_ROCI NEUMANN_LAT NEUMANN_LON NEUMANN_CLASS NEUMANN_WIND NEUMANN_PRES MLC_LAT MLC_LON MLC_CLASS MLC_WIND MLC_PRES USA_GUST BOM_GUST BOM_GUST_PER REUNION_GUST REUNION_GUST_PER USA_SEAHGT USA_SEARAD_NE USA_SEARAD_SE USA_SEARAD_SW USA_SEARAD_NW STORM_SPEED STORM_DIR
1923253N27287 1923 60 NA NA NOT_NAMED 1923-09-10 00:00:00 TS 27.0000 -73.0000 25 hurdat_atl main 542 542 O_____________ hurdat_atl AL041923 27.0000 -73.0000 TD 25 -1 11 24
1923253N27287 1923 60 NA NA NOT_NAMED 1923-09-10 03:00:00 TS 27.5001 -72.7480 main 591 591 P_____________ AL041923 27.5001 -72.7480 TD 25 -1 11 24
1923253N27287 1923 60 NA NA NOT_NAMED 1923-09-10 06:00:00 TS 28.0000 -72.5000 25 hurdat_atl main 635 635 O_____________ hurdat_atl AL041923 28.0000 -72.5000 TD 25 -1 11 23
1923253N27287 1923 60 NA NA NOT_NAMED 1923-09-10 09:00:00 TS 28.4999 -72.2572 main 680 680 P_____________ AL041923 28.4999 -72.2572 TD 27 -1 11 24
1923253N27287 1923 60 NA NA NOT_NAMED 1923-09-10 12:00:00 TS 29.0000 -72.0000 30 hurdat_atl main 736 734 O_____________ hurdat_atl AL041923 29.0000 -72.0000 TD 30 -1 11 25
1923253N27287 1923 60 NA NA NOT_NAMED 1923-09-10 15:00:00 TS 29.4999 -71.7147 main 734 709 P_____________ AL041923 29.4999 -71.7147 TD 30 -1 11 28
1923253N27287 1923 60 NA NA NOT_NAMED 1923-09-10 18:00:00 TS 30.0000 -71.4000 30 hurdat_atl main 709 688 O_____________ hurdat_atl AL041923 30.0000 -71.4000 TD 30 -1 12 29
1923253N27287 1923 60 NA NA NOT_NAMED 1923-09-10 21:00:00 TS 30.4999 -71.0646 main 688 678 P_____________ AL041923 30.4999 -71.0646 TD 32 -1 12 31
1923253N27287 1923 60 NA NA NOT_NAMED 1923-09-11 00:00:00 TS 31.0000 -70.7000 35 hurdat_atl main 678 671 O_____________ hurdat_atl AL041923 31.0000 -70.7000 TS 35 0 12 33
1923253N27287 1923 60 NA NA NOT_NAMED 1923-09-11 03:00:00 TS 31.4999 -70.3146 main 673 667 P_____________ AL041923 31.4999 -70.3146 TS 35 0 12 34
1923253N27287 1923 60 NA NA NOT_NAMED 1923-09-11 06:00:00 TS 32.0000 -69.9000 35 hurdat_atl main 667 659 O_____________ hurdat_atl AL041923 32.0000 -69.9000 TS 35 0 12 36
1923253N27287 1923 60 NA NA NOT_NAMED 1923-09-11 09:00:00 TS 32.4998 -69.4645 main 662 662 P_____________ AL041923 32.4998 -69.4645 TS 37 0 13 37
1923253N27287 1923 60 NA NA NOT_NAMED 1923-09-11 12:00:00 TS 33.0000 -69.0000 40 hurdat_atl main 671 671 O_____________ hurdat_atl AL041923 33.0000 -69.0000 TS 40 0 13 39
1923253N27287 1923 60 NA NA NOT_NAMED 1923-09-11 15:00:00 TS 33.4999 -68.5070 main 688 683 P_____________ AL041923 33.4999 -68.5070 TS 42 0 13 40
1923253N27287 1923 60 NA NA NOT_NAMED 1923-09-11 18:00:00 TS 34.0000 -68.0000 45 hurdat_atl main 711 711 O_____________ hurdat_atl AL041923 34.0000 -68.0000 TS 45 0 13 39
1923253N27287 1923 60 NA NA NOT_NAMED 1923-09-11 21:00:00 TS 34.4996 -67.5141 main 739 737 P_____________ AL041923 34.4996 -67.5141 TS 47 0 13 40
1923253N27287 1923 60 NA NA NOT_NAMED 1923-09-12 00:00:00 TS 35.0000 -67.0000 50 hurdat_atl main 773 753 O_____________ hurdat_atl AL041923 35.0000 -67.0000 TS 50 0 13 42
1923253N27287 1923 60 NA NA NOT_NAMED 1923-09-12 03:00:00 TS 35.4998 -66.4219 main 757 730 P_____________ AL041923 35.4998 -66.4219 TS 55 0 14 44
1923253N27287 1923 60 NA NA NOT_NAMED 1923-09-12 06:00:00 TS 36.0000 -65.8000 60 hurdat_atl main 730 715 O_____________ hurdat_atl AL041923 36.0000 -65.8000 TS 60 0 14 47
1923253N27287 1923 60 NA NA NOT_NAMED 1923-09-12 09:00:00 TS 36.4243 -65.1838 main 720 703 P_____________ AL041923 36.4243 -65.1838 TS 65 1 14 46
1923253N27287 1923 60 NA NA NOT_NAMED 1923-09-12 12:00:00 TS 37.0000 -64.5000 70 hurdat_atl main 703 648 O_____________ hurdat_atl AL041923 37.0000 -64.5000 HU 70 1 19 40
1923253N27287 1923 60 NA NA NOT_NAMED 1923-09-12 15:00:00 TS 37.8501 -63.6851 main 637 549 P_____________ AL041923 37.8501 -63.6851 HU 70 1 24 34
1923253N27287 1923 60 NA NA NOT_NAMED 1923-09-12 18:00:00 TS 39.0000 -62.8000 70 hurdat_atl main 542 448 O_____________ hurdat_atl AL041923 39.0000 -62.8000 HU 70 1 29 28
1923253N27287 1923 60 NA NA NOT_NAMED 1923-09-12 21:00:00 TS 40.4240 -61.9345 main 444 340 P_____________ AL041923 40.4240 -61.9345 HU 70 1 33 25
1923253N27287 1923 60 NA NA NOT_NAMED 1923-09-13 00:00:00 TS 42.0000 -61.0000 70 hurdat_atl main 333 208 O_____________ hurdat_atl AL041923 42.0000 -61.0000 HU 70 1 34 25
1923253N27287 1923 60 NA NA NOT_NAMED 1923-09-13 03:00:00 TS 43.5359 -59.9708 main 208 136 P_____________ AL041923 43.5359 -59.9708 HU 65 1 34 28
1923253N27287 1923 60 NA NA NOT_NAMED 1923-09-13 06:00:00 ET 45.0000 -58.8000 60 hurdat_atl main 134 127 O_____________ hurdat_atl AL041923 45.0000 -58.8000 EX 60 -4 34 31
1923253N27287 1923 60 NA NA NOT_NAMED 1923-09-13 09:00:00 ET 46.3975 -57.4987 main 130 0 P_____________ AL041923 46.3975 -57.4987 EX 55 -4 32 38
1923253N27287 1923 60 NA NA NOT_NAMED 1923-09-13 12:00:00 ET 47.5000 -56.0000 50 hurdat_atl main 7 0 O_____________ hurdat_atl AL041923 47.5000 -56.0000 EX 50 -4 27 50
1923253N27287 1923 60 NA NA NOT_NAMED 1923-09-13 15:00:00 ET 48.1455 -54.3683 main 0 0 P_____________ AL041923 48.1455 -54.3683 EX 47 -4 25 67
1923253N27287 1923 60 NA NA NOT_NAMED 1923-09-13 18:00:00 ET 48.5000 -52.5000 45 hurdat_atl main 36 36 O_____________ hurdat_atl AL041923 48.5000 -52.5000 EX 45 -4 27 75
1923253N27287 1923 60 NA NA NOT_NAMED 1923-09-13 21:00:00 ET 48.8346 -50.4009 main 192 192 P_____________ AL041923 48.8346 -50.4009 EX 42 -4 30 80
1923253N27287 1923 60 NA NA NOT_NAMED 1923-09-14 00:00:00 ET 49.0000 -48.0000 40 hurdat_atl main 365 365 O_____________ hurdat_atl AL041923 49.0000 -48.0000 EX 40 -4 34 88
1923253N27287 1923 60 NA NA NOT_NAMED 1923-09-14 03:00:00 ET 48.9633 -45.2437 main 565 565 P_____________ AL041923 48.9633 -45.2437 EX 37 -4 36 93
1923253N27287 1923 60 NA NA NOT_NAMED 1923-09-14 06:00:00 ET 48.8000 -42.5000 35 hurdat_atl main 759 759 O_____________ hurdat_atl AL041923 48.8000 -42.5000 EX 35 -4 35 95
1923253N27287 1923 60 NA NA NOT_NAMED 1923-09-14 09:00:00 ET 48.6721 -39.9893 main 939 939 P_____________ AL041923 48.6721 -39.9893 EX 32 -4 30 96
1923253N27287 1923 60 NA NA NOT_NAMED 1923-09-14 12:00:00 ET 48.5000 -38.0000 30 hurdat_atl main 1085 1085 O_____________ hurdat_atl AL041923 48.5000 -38.0000 EX 30 -4 22 101
1923253N27287 1923 60 NA NA NOT_NAMED 1923-09-14 15:00:00 ET 48.2586 -36.7391 main 1181 1181 P_____________ AL041923 48.2586 -36.7391 EX 30 -4 14 111
1923253N27287 1923 60 NA NA NOT_NAMED 1923-09-14 18:00:00 ET 48.0000 -36.0000 30 hurdat_atl main 1234 1234 O_____________ hurdat_atl AL041923 48.0000 -36.0000 EX 30 -4 10 121
1923253N27287 1923 60 NA NA NOT_NAMED 1923-09-14 21:00:00 ET 47.7474 -35.4614 main 1274 1274 P_____________ AL041923 47.7474 -35.4614 EX 30 -4 8 127
1923253N27287 1923 60 NA NA NOT_NAMED 1923-09-15 00:00:00 ET 47.5000 -35.0000 30 hurdat_atl main 1313 O_____________ hurdat_atl AL041923 47.5000 -35.0000 EX 30 -4 8 128

IBTrACS Databaseについて

本データベースは、米国NOAAが公開する1842年以降の世界の熱帯低気圧のベストトラックデータアーカイブInternational Best Track Archive for Climate Stewardship (IBTrACS)を、ウェブで閲覧しやすい形式に変換したものです。

最終更新日:2021-10-21